createdAt,value
2019-02-17T09:04:11.093Z,65.37
2019-02-17T09:06:39.361Z,70.15
2019-02-17T09:09:07.919Z,65.20
2019-02-17T09:11:36.423Z,71.42
2019-02-17T09:14:04.743Z,67.72
2019-02-17T09:16:33.389Z,68.20
2019-02-17T09:19:02.199Z,65.60
2019-02-17T09:21:30.939Z,67.45
2019-02-17T09:23:59.267Z,66.57
2019-02-17T09:26:29.650Z,71.75
2019-02-17T09:28:57.997Z,70.17
2019-02-17T09:31:26.191Z,70.60
2019-02-17T09:33:54.402Z,65.57
2019-02-17T09:36:22.605Z,67.75
2019-02-17T09:38:50.810Z,64.35
2019-02-17T09:41:19.364Z,67.85
2019-02-17T09:43:47.570Z,65.20
2019-02-17T09:46:16.119Z,65.35
2019-02-17T09:48:44.703Z,69.35
2019-02-17T09:51:12.978Z,59.90
2019-02-17T09:53:41.563Z,64.00
2019-02-17T09:56:09.762Z,60.92
2019-02-17T09:58:38.521Z,57.25
2019-02-17T10:01:06.716Z,59.95
2019-02-17T10:03:34.937Z,55.23
2019-02-17T10:06:03.133Z,61.08
2019-02-17T10:08:31.421Z,55.08
2019-02-17T10:10:59.639Z,56.63
2019-02-17T10:13:27.922Z,53.70
2019-02-17T10:15:56.143Z,59.83
2019-02-17T10:18:24.353Z,55.50
2019-02-17T10:20:52.575Z,57.48
2019-02-17T10:23:20.771Z,57.13
2019-02-17T10:25:49.259Z,51.77
2019-02-17T10:28:17.480Z,53.63
2019-02-17T10:30:45.683Z,54.67
2019-02-17T10:33:13.908Z,54.67
2019-02-17T10:35:42.100Z,58.65
2019-02-17T10:38:10.316Z,58.35
2019-02-17T10:40:38.511Z,59.20
2019-02-17T10:43:06.723Z,53.65
2019-02-17T10:45:35.266Z,53.73
2019-02-17T10:48:03.477Z,56.20
2019-02-17T10:50:31.676Z,55.40
2019-02-17T10:52:59.879Z,55.90
2019-02-17T10:55:28.078Z,58.52
2019-02-17T10:57:56.295Z,51.90
2019-02-17T11:00:24.563Z,56.88
2019-02-17T11:02:52.770Z,59.48
2019-02-17T11:05:20.964Z,59.03
2019-02-17T11:07:49.452Z,56.55
2019-02-17T11:10:17.652Z,55.55
2019-02-17T11:12:45.870Z,53.38
2019-02-17T11:15:21.449Z,52.23
2019-02-17T11:17:49.657Z,54.30
2019-02-17T11:20:17.880Z,54.27
2019-02-17T11:22:46.153Z,55.08
2019-02-17T11:25:15.252Z,50.80
2019-02-17T11:27:43.462Z,51.23
2019-02-17T11:30:14.772Z,52.80
2019-02-17T11:32:43.342Z,54.83
2019-02-17T11:35:11.540Z,56.30
2019-02-17T11:37:39.738Z,53.92
2019-02-17T11:40:10.666Z,54.05
2019-02-17T11:42:38.871Z,53.95
2019-02-17T11:45:10.359Z,54.77
2019-02-17T11:47:38.867Z,54.58
2019-02-17T11:50:08.515Z,60.05
2019-02-17T11:52:36.714Z,49.30
2019-02-17T11:55:08.231Z,49.85
2019-02-17T11:57:36.797Z,49.53
2019-02-17T12:00:08.340Z,46.98
2019-02-17T12:02:36.542Z,48.50
2019-02-17T12:05:06.437Z,43.73
2019-02-17T12:07:34.920Z,50.70
2019-02-17T12:10:03.404Z,46.92
2019-02-17T12:12:31.609Z,51.13
2019-02-17T12:14:59.808Z,45.98
2019-02-17T12:17:28.015Z,52.03
2019-02-17T12:19:57.855Z,51.95
2019-02-17T12:22:27.726Z,52.03
2019-02-17T12:24:57.567Z,50.20
2019-02-17T12:27:27.407Z,49.73
2019-02-17T12:29:57.206Z,52.05
2019-02-17T12:32:27.045Z,51.28
2019-02-17T12:34:55.244Z,55.33
2019-02-17T12:37:23.758Z,45.80
2019-02-17T12:39:51.962Z,44.50
2019-02-17T12:42:20.508Z,47.62
2019-02-17T12:44:48.994Z,45.25
2019-02-17T12:47:17.304Z,46.80
2019-02-17T12:49:45.861Z,48.42
2019-02-17T12:52:14.074Z,45.03
2019-02-17T12:54:42.291Z,47.20
2019-02-17T12:57:10.784Z,45.75
2019-02-17T12:59:38.996Z,47.67
2019-02-17T13:02:07.199Z,44.77
2019-02-17T13:04:35.419Z,47.88
2019-02-17T13:07:03.684Z,44.08
2019-02-17T13:09:31.908Z,43.42
2019-02-17T13:12:00.443Z,53.15
2019-02-17T13:14:28.658Z,41.58
2019-02-17T13:16:57.208Z,43.33
2019-02-17T13:19:25.408Z,42.75
2019-02-17T13:21:53.609Z,44.67
2019-02-17T13:24:22.690Z,43.55
2019-02-17T13:26:50.901Z,44.10
2019-02-17T13:29:19.119Z,42.90
2019-02-17T13:31:47.343Z,47.38
2019-02-17T13:34:15.535Z,47.25
2019-02-17T13:36:44.034Z,44.70
2019-02-17T13:39:12.256Z,38.20
2019-02-17T13:41:40.459Z,44.23
2019-02-17T13:44:08.966Z,41.90
2019-02-17T13:46:37.181Z,44.00
2019-02-17T13:49:05.406Z,42.30
2019-02-17T13:51:33.621Z,48.70
2019-02-17T13:54:01.839Z,51.23
2019-02-17T13:56:30.040Z,43.00
2019-02-17T13:58:58.523Z,45.83
2019-02-17T14:01:26.722Z,50.60
2019-02-17T14:03:54.954Z,41.00
2019-02-17T14:06:23.177Z,41.95
2019-02-17T14:08:51.731Z,43.40
2019-02-17T14:11:19.944Z,43.42
2019-02-17T14:13:48.499Z,48.20
2019-02-17T14:16:17.078Z,48.42
2019-02-17T14:18:45.548Z,45.10
2019-02-17T14:21:13.761Z,44.18
2019-02-17T14:23:42.303Z,44.33
2019-02-17T14:26:10.506Z,49.45
2019-02-17T14:28:38.705Z,46.28
2019-02-17T14:31:06.938Z,43.35
2019-02-17T14:33:35.135Z,43.58
2019-02-17T14:36:03.684Z,41.30
2019-02-17T14:38:31.912Z,44.45
2019-02-17T14:41:00.452Z,45.00
2019-02-17T14:43:28.655Z,40.45
2019-02-17T14:45:56.873Z,42.05
2019-02-17T14:48:25.099Z,40.43
2019-02-17T14:50:53.295Z,43.05
2019-02-17T14:53:21.535Z,39.25
2019-02-17T14:55:49.713Z,45.03
2019-02-17T14:58:17.914Z,43.35
2019-02-17T15:00:46.448Z,41.33
2019-02-17T15:03:14.649Z,41.63
2019-02-17T15:05:43.210Z,38.78
2019-02-17T15:08:11.421Z,40.88
2019-02-17T15:10:39.632Z,37.10
2019-02-17T15:13:07.852Z,40.05
2019-02-17T15:15:36.416Z,41.58
2019-02-17T15:18:04.897Z,40.70
2019-02-17T15:20:33.095Z,39.45
2019-02-17T15:23:01.306Z,48.50
2019-02-17T15:25:29.505Z,44.67
2019-02-17T15:27:57.715Z,45.00
2019-02-17T15:30:26.183Z,39.98
2019-02-17T15:33:03.727Z,43.75
2019-02-17T15:35:24.703Z,42.45
2019-02-17T15:37:53.266Z,42.58
2019-02-17T15:40:23.482Z,38.45
2019-02-17T15:42:51.851Z,48.50
2019-02-17T15:45:20.340Z,37.42
2019-02-17T15:47:48.829Z,40.63
2019-02-17T15:50:17.303Z,45.17
2019-02-17T15:52:45.522Z,38.20
2019-02-17T15:55:15.315Z,39.18
2019-02-17T15:57:43.534Z,39.45
2019-02-17T16:00:13.772Z,41.35
2019-02-17T16:02:41.979Z,45.12
2019-02-17T16:05:10.366Z,42.43
2019-02-17T16:07:38.566Z,39.85
2019-02-17T16:10:10.042Z,43.78
2019-02-17T16:12:38.238Z,45.00
2019-02-17T16:15:09.694Z,45.52
2019-02-17T16:17:37.912Z,43.45
2019-02-17T16:20:09.521Z,44.58
2019-02-17T16:22:38.015Z,38.45
2019-02-17T16:25:08.002Z,42.30
2019-02-17T16:27:36.209Z,45.17
2019-02-17T16:30:07.011Z,42.48
2019-02-17T16:32:35.225Z,45.73
2019-02-17T16:35:03.442Z,42.67
2019-02-17T16:37:31.645Z,39.23
2019-02-17T16:39:59.852Z,45.20
2019-02-17T16:42:28.326Z,41.68
2019-02-17T16:44:56.538Z,41.42
2019-02-17T16:47:24.739Z,41.63
2019-02-17T16:49:52.953Z,42.08
2019-02-17T16:52:21.158Z,43.78
2019-02-17T16:54:49.383Z,43.40
2019-02-17T16:57:17.587Z,40.45
2019-02-17T16:59:45.796Z,38.98
2019-02-17T17:02:13.999Z,41.50
2019-02-17T17:04:48.477Z,44.50
2019-02-17T17:07:12.150Z,40.80
2019-02-17T17:09:40.392Z,42.53
2019-02-17T17:12:08.725Z,38.80
2019-02-17T17:14:37.116Z,41.70
2019-02-17T17:17:05.369Z,43.87
2019-02-17T17:19:33.857Z,45.17
2019-02-17T17:22:02.682Z,44.23
2019-02-17T17:24:31.276Z,45.50
2019-02-17T17:26:59.482Z,45.55
2019-02-17T17:29:27.715Z,42.05
2019-02-17T17:31:55.923Z,43.83
2019-02-17T17:34:24.125Z,47.08
2019-02-17T17:36:52.652Z,40.95
2019-02-17T17:39:21.162Z,38.78
2019-02-17T17:41:49.395Z,42.65
2019-02-17T17:44:17.607Z,42.83
2019-02-17T17:46:45.804Z,44.95
2019-02-17T17:49:19.344Z,41.65
2019-02-17T17:51:44.364Z,42.43
2019-02-17T17:54:12.942Z,45.12
2019-02-17T17:56:41.148Z,46.25
2019-02-17T17:59:09.365Z,42.85
2019-02-17T18:01:37.814Z,43.00
2019-02-17T18:04:06.021Z,48.15
2019-02-17T18:06:34.253Z,38.48
2019-02-17T18:09:02.453Z,43.83
2019-02-17T18:11:30.980Z,43.50
2019-02-17T18:13:59.213Z,43.70
2019-02-17T18:16:27.423Z,43.92
2019-02-17T18:18:55.626Z,41.30
2019-02-17T18:21:23.829Z,43.68
2019-02-17T18:23:52.031Z,48.90
2019-02-17T18:26:20.242Z,45.78
2019-02-17T18:28:48.710Z,44.08
2019-02-17T18:31:16.923Z,46.75
2019-02-17T18:33:45.469Z,50.83
2019-02-17T18:36:13.949Z,51.50
2019-02-17T18:38:42.154Z,48.38
2019-02-17T18:41:10.352Z,50.15
2019-02-17T18:43:38.559Z,51.68
2019-02-17T18:46:06.763Z,50.43
2019-02-17T18:48:34.965Z,48.33
2019-02-17T18:51:03.503Z,44.65
2019-02-17T18:53:31.983Z,48.17
2019-02-17T18:56:00.199Z,49.33
2019-02-17T18:58:28.746Z,49.93
2019-02-17T19:00:57.332Z,50.03
2019-02-17T19:03:25.526Z,49.40
2019-02-17T19:05:54.089Z,52.67
2019-02-17T19:08:22.282Z,51.45
2019-02-17T19:10:50.472Z,50.12
2019-02-17T19:13:18.678Z,48.73
2019-02-17T19:15:47.188Z,53.50
2019-02-17T19:18:15.670Z,47.38
2019-02-17T19:20:44.156Z,51.30
2019-02-17T19:23:12.355Z,45.38
2019-02-17T19:25:40.573Z,47.90
2019-02-17T19:28:08.777Z,47.13
2019-02-17T19:30:37.266Z,50.38
2019-02-17T19:33:05.462Z,52.40
2019-02-17T19:35:41.505Z,55.55
2019-02-17T19:38:03.596Z,52.35
2019-02-17T19:40:31.794Z,51.60
2019-02-17T19:43:00.049Z,56.00
2019-02-17T19:45:28.211Z,52.62
2019-02-17T19:47:56.731Z,57.17
2019-02-17T19:50:24.944Z,55.08
2019-02-17T19:52:53.149Z,58.75
2019-02-17T19:55:21.365Z,55.63
2019-02-17T19:57:49.835Z,57.75
2019-02-17T20:00:19.975Z,55.73
2019-02-17T20:02:52.772Z,59.63
2019-02-17T20:05:22.606Z,51.63
2019-02-17T20:07:52.807Z,59.93
2019-02-17T20:10:20.756Z,54.85
2019-02-17T20:12:50.531Z,53.05
2019-02-17T20:15:19.111Z,55.30
2019-02-17T20:17:47.318Z,53.08
2019-02-17T20:20:15.933Z,50.67
2019-02-17T20:22:44.121Z,51.15
2019-02-17T20:25:12.310Z,51.73
2019-02-17T20:27:40.835Z,49.85
2019-02-17T20:30:11.902Z,51.80
2019-02-17T20:32:40.116Z,52.30
2019-02-17T20:35:09.263Z,53.60
2019-02-17T20:37:37.468Z,54.30
2019-02-17T20:40:16.596Z,54.63
2019-02-17T20:42:44.785Z,51.05
2019-02-17T20:45:13.000Z,51.37
2019-02-17T20:47:41.233Z,48.98
2019-02-17T20:50:12.634Z,51.20
2019-02-17T20:52:40.874Z,52.98
2019-02-17T20:55:10.721Z,58.85
2019-02-17T20:57:38.935Z,48.90
2019-02-17T21:00:12.790Z,51.70
2019-02-17T21:02:40.993Z,53.30
2019-02-17T21:05:10.049Z,47.17
2019-02-17T21:07:38.250Z,53.30
2019-02-17T21:10:11.932Z,49.15
2019-02-17T21:12:40.133Z,53.42
2019-02-17T21:15:14.000Z,50.70
2019-02-17T21:17:42.203Z,48.50
2019-02-17T21:20:10.646Z,50.55
2019-02-17T21:22:38.862Z,51.58
2019-02-17T21:25:11.644Z,48.35
2019-02-17T21:27:39.856Z,48.63
2019-02-17T21:30:13.523Z,47.60
2019-02-17T21:32:41.734Z,48.28
2019-02-17T21:35:12.553Z,45.48
2019-02-17T21:37:40.761Z,48.05
2019-02-17T21:40:10.804Z,46.63
2019-02-17T21:42:39.370Z,46.70
2019-02-17T21:45:12.306Z,53.08
2019-02-17T21:47:40.526Z,46.15
2019-02-17T21:50:10.667Z,47.05
2019-02-17T21:52:38.874Z,50.88
2019-02-17T21:55:08.904Z,51.37
2019-02-17T21:57:37.113Z,47.98
2019-02-17T22:00:15.150Z,48.23
2019-02-17T22:02:43.377Z,47.03
2019-02-17T22:05:11.824Z,49.93
2019-02-17T22:07:40.367Z,52.62
2019-02-17T22:10:11.656Z,52.33
2019-02-17T22:12:39.863Z,46.28
2019-02-17T22:15:11.172Z,50.43
2019-02-17T22:17:39.374Z,49.20
2019-02-17T22:20:09.416Z,48.30
2019-02-17T22:22:37.916Z,46.08
2019-02-17T22:25:07.643Z,50.55
2019-02-17T22:27:35.849Z,49.88
2019-02-17T22:30:06.429Z,47.50
2019-02-17T22:32:34.652Z,50.63
2019-02-17T22:35:03.208Z,51.28
2019-02-17T22:37:31.401Z,47.48
2019-02-17T22:39:59.594Z,53.52
2019-02-17T22:42:28.111Z,50.00
2019-02-17T22:44:56.320Z,52.45
2019-02-17T22:47:24.528Z,48.28
2019-02-17T22:49:52.718Z,47.15
2019-02-17T22:52:20.929Z,46.18
2019-02-17T22:54:49.126Z,46.30
2019-02-17T22:57:17.671Z,53.25
2019-02-17T22:59:45.883Z,48.28
2019-02-17T23:02:14.428Z,48.30
2019-02-17T23:04:42.639Z,48.45
2019-02-17T23:07:11.187Z,45.88
2019-02-17T23:09:39.407Z,51.23
2019-02-17T23:12:07.604Z,47.73
2019-02-17T23:14:36.214Z,46.45
2019-02-17T23:17:04.426Z,47.08
2019-02-17T23:19:32.629Z,47.13
2019-02-17T23:22:00.869Z,52.25
2019-02-17T23:24:29.064Z,47.15
2019-02-17T23:26:57.258Z,46.70
2019-02-17T23:29:25.489Z,50.73
2019-02-17T23:31:53.681Z,50.90
2019-02-17T23:34:21.886Z,49.48
2019-02-17T23:36:50.079Z,44.98
2019-02-17T23:39:18.291Z,43.90
2019-02-17T23:41:47.264Z,45.92
2019-02-17T23:44:15.470Z,43.52
2019-02-17T23:46:44.021Z,47.45
2019-02-17T23:49:12.236Z,47.13
2019-02-17T23:51:40.431Z,47.40
2019-02-17T23:54:08.637Z,48.98
2019-02-17T23:56:36.837Z,46.95
2019-02-17T23:59:05.043Z,46.60
